createdAt,value
2022-11-04T00:00:29.825Z,2.97
2022-11-04T00:01:05.930Z,2.95
2022-11-04T00:01:45.397Z,1.98
2022-11-04T00:02:17.017Z,3.88
2022-11-04T00:02:48.741Z,4.40
2022-11-04T00:03:20.275Z,4.88
2022-11-04T00:03:52.967Z,2.63
2022-11-04T00:04:26.871Z,3.58
2022-11-04T00:04:59.203Z,2.65
2022-11-04T00:05:30.917Z,4.70
2022-11-04T00:06:02.452Z,2.63
2022-11-04T00:06:34.583Z,5.63
2022-11-04T00:07:26.086Z,3.95
2022-11-04T00:08:16.315Z,2.78
2022-11-04T00:08:52.121Z,2.28
2022-11-04T00:09:26.173Z,3.00
2022-11-04T00:09:57.698Z,3.50
2022-11-04T00:10:47.556Z,4.95
2022-11-04T00:11:38.077Z,4.10
2022-11-04T00:12:24.831Z,2.33
2022-11-04T00:12:56.388Z,5.82
2022-11-04T00:13:30.566Z,6.22
2022-11-04T00:14:02.928Z,6.63
2022-11-04T00:14:35.168Z,4.38
2022-11-04T00:15:25.340Z,4.10
2022-11-04T00:16:19.888Z,3.55
2022-11-04T00:17:10.168Z,3.97
2022-11-04T00:17:41.727Z,4.40
2022-11-04T00:18:13.244Z,9.15
2022-11-04T00:18:44.933Z,6.90
2022-11-04T00:19:16.764Z,4.30
2022-11-04T00:20:08.791Z,5.57
2022-11-04T00:20:58.691Z,4.20
2022-11-04T00:21:49.013Z,4.53
2022-11-04T00:22:38.953Z,4.10
2022-11-04T00:23:28.785Z,5.93
2022-11-04T00:24:19.286Z,5.80
2022-11-04T00:25:09.196Z,7.32
2022-11-04T00:25:59.309Z,8.15
2022-11-04T00:26:49.261Z,4.50
2022-11-04T00:27:40.115Z,7.05
2022-11-04T00:28:33.671Z,6.70
2022-11-04T00:29:05.187Z,7.47
2022-11-04T00:29:36.692Z,4.40
2022-11-04T00:30:10.231Z,4.80
2022-11-04T00:30:41.698Z,6.45
2022-11-04T00:31:31.756Z,4.75
2022-11-04T00:32:22.090Z,5.13
2022-11-04T00:33:11.980Z,5.40
2022-11-04T00:33:43.504Z,5.45
2022-11-04T00:34:14.989Z,7.43
2022-11-04T00:34:46.774Z,6.03
2022-11-04T00:35:18.912Z,5.00
2022-11-04T00:35:51.027Z,5.53
2022-11-04T00:36:24.190Z,6.10
2022-11-04T00:36:55.868Z,4.78
2022-11-04T00:37:27.391Z,5.13
2022-11-04T00:37:58.891Z,4.68
2022-11-04T00:38:30.609Z,4.15
2022-11-04T00:39:02.122Z,5.65
2022-11-04T00:39:33.703Z,6.43
2022-11-04T00:40:06.291Z,5.22
2022-11-04T00:40:37.812Z,6.15
2022-11-04T00:41:26.057Z,6.00
2022-11-04T00:41:58.051Z,3.95
2022-11-04T00:42:29.698Z,6.18
2022-11-04T00:43:01.231Z,5.00
2022-11-04T00:43:33.445Z,4.70
2022-11-04T00:44:05.455Z,6.68
2022-11-04T00:44:37.009Z,4.30
2022-11-04T00:45:08.719Z,3.95
2022-11-04T00:45:41.662Z,6.22
2022-11-04T00:46:13.128Z,6.43
2022-11-04T00:46:44.642Z,6.00
2022-11-04T00:47:16.178Z,7.30
2022-11-04T00:47:47.831Z,5.22
2022-11-04T00:48:19.343Z,4.47
2022-11-04T00:48:51.092Z,4.47
2022-11-04T00:49:22.680Z,6.60
2022-11-04T00:49:54.235Z,5.22
2022-11-04T00:50:25.772Z,5.25
2022-11-04T00:50:57.318Z,5.03
2022-11-04T00:51:29.159Z,5.00
2022-11-04T00:52:00.667Z,5.95
2022-11-04T00:52:32.163Z,8.30
2022-11-04T00:53:04.436Z,6.20
2022-11-04T00:53:36.201Z,6.28
2022-11-04T00:54:07.767Z,8.50
2022-11-04T00:54:39.376Z,6.85
2022-11-04T00:55:12.140Z,4.95
2022-11-04T00:55:43.707Z,5.78
2022-11-04T00:56:15.344Z,5.97
2022-11-04T00:56:48.623Z,6.45
2022-11-04T00:57:20.146Z,6.38
2022-11-04T00:57:51.726Z,6.82
2022-11-04T00:58:23.220Z,4.93
2022-11-04T00:58:54.712Z,7.13
2022-11-04T00:59:26.230Z,6.30
2022-11-04T00:59:57.718Z,6.50
2022-11-04T01:00:29.493Z,7.93
2022-11-04T01:01:01.109Z,7.10
2022-11-04T01:01:32.856Z,6.22
2022-11-04T01:02:04.602Z,8.20
2022-11-04T01:02:36.356Z,7.30
2022-11-04T01:03:08.263Z,5.95
2022-11-04T01:03:40.035Z,6.40
2022-11-04T01:04:11.739Z,12.93
2022-11-04T01:04:43.593Z,9.75
2022-11-04T01:05:15.139Z,6.78
2022-11-04T01:05:46.704Z,10.38
2022-11-04T01:06:19.937Z,9.98
2022-11-04T01:06:51.467Z,6.97
2022-11-04T01:07:22.964Z,7.63
2022-11-04T01:07:54.591Z,9.52
2022-11-04T01:08:26.343Z,10.07
2022-11-04T01:09:03.843Z,9.27
2022-11-04T01:09:35.415Z,10.07
2022-11-04T01:10:07.542Z,9.02
2022-11-04T01:10:44.662Z,8.75
2022-11-04T01:11:16.957Z,7.90
2022-11-04T01:11:48.555Z,10.80
2022-11-04T01:12:20.051Z,8.75
2022-11-04T01:12:52.369Z,8.68
2022-11-04T01:13:23.850Z,10.55
2022-11-04T01:13:55.821Z,13.88
2022-11-04T01:14:27.343Z,9.95
2022-11-04T01:14:59.514Z,9.55
2022-11-04T01:15:31.145Z,10.98
2022-11-04T01:16:04.991Z,11.02
2022-11-04T01:16:37.248Z,11.20
2022-11-04T01:17:09.007Z,10.80
2022-11-04T01:17:41.049Z,11.82
2022-11-04T01:18:12.653Z,11.02
2022-11-04T01:18:44.175Z,15.38
2022-11-04T01:19:15.936Z,13.65
2022-11-04T01:19:47.488Z,11.90
2022-11-04T01:20:19.007Z,13.35
2022-11-04T01:20:50.527Z,12.60
2022-11-04T01:21:22.065Z,12.18
2022-11-04T01:21:53.746Z,13.60
2022-11-04T01:22:25.339Z,12.70
2022-11-04T01:22:56.824Z,13.85
2022-11-04T01:23:28.707Z,19.20
2022-11-04T01:24:00.836Z,15.68
2022-11-04T01:24:32.356Z,12.40
2022-11-04T01:25:05.096Z,14.32
2022-11-04T01:25:41.526Z,12.90
2022-11-04T01:26:18.168Z,12.85
2022-11-04T01:26:49.787Z,12.65
2022-11-04T01:27:21.396Z,12.60
2022-11-04T01:27:52.981Z,15.38
2022-11-04T01:28:24.545Z,18.55
2022-11-04T01:28:57.664Z,11.25
2022-11-04T01:29:29.185Z,13.27
2022-11-04T01:30:00.696Z,12.95
2022-11-04T01:30:32.260Z,14.95
2022-11-04T01:31:14.780Z,12.73
2022-11-04T01:31:46.460Z,11.23
2022-11-04T01:32:18.181Z,15.48
2022-11-04T01:32:49.715Z,14.52
2022-11-04T01:33:21.266Z,10.45
2022-11-04T01:33:54.286Z,11.30
2022-11-04T01:34:25.930Z,11.63
2022-11-04T01:34:57.463Z,12.15
2022-11-04T01:35:29.053Z,9.95
2022-11-04T01:36:01.325Z,10.45
2022-11-04T01:36:33.038Z,9.80
2022-11-04T01:37:04.614Z,10.45
2022-11-04T01:37:36.125Z,8.93
2022-11-04T01:38:07.906Z,9.88
2022-11-04T01:38:39.654Z,11.35
2022-11-04T01:39:12.949Z,11.15
2022-11-04T01:39:44.555Z,10.68
2022-11-04T01:40:16.158Z,8.77
2022-11-04T01:40:47.662Z,11.07
2022-11-04T01:41:22.543Z,9.50
2022-11-04T01:41:54.116Z,10.20
2022-11-04T01:42:25.788Z,8.98
2022-11-04T01:42:57.314Z,8.77
2022-11-04T01:43:44.235Z,8.95
2022-11-04T01:44:46.844Z,25.65
2022-11-04T01:45:20.212Z,7.47
2022-11-04T01:45:55.004Z,8.43
2022-11-04T01:46:40.433Z,6.68
2022-11-04T01:47:19.617Z,9.80
2022-11-04T01:48:02.746Z,7.28
2022-11-04T01:48:34.749Z,8.48
2022-11-04T01:49:39.179Z,6.78
2022-11-04T01:50:25.683Z,8.68
2022-11-04T01:50:57.598Z,11.48
2022-11-04T01:51:31.352Z,7.05
2022-11-04T01:52:08.082Z,7.32
2022-11-04T01:57:19.826Z,6.07
2022-11-04T01:57:53.389Z,6.35
2022-11-04T01:58:30.948Z,4.70
2022-11-04T01:59:12.369Z,5.28
2022-11-04T01:59:44.035Z,5.53
2022-11-04T02:00:16.403Z,6.15
2022-11-04T02:00:48.519Z,5.78
2022-11-04T02:01:20.188Z,8.20
2022-11-04T02:01:52.245Z,4.95
2022-11-04T02:02:24.224Z,4.63
2022-11-04T02:03:10.576Z,5.65
2022-11-04T02:03:50.989Z,3.60
2022-11-04T02:04:25.834Z,4.95
2022-11-04T02:04:57.391Z,6.05
2022-11-04T02:05:30.412Z,3.60
2022-11-04T02:06:03.110Z,6.65
2022-11-04T02:06:34.735Z,4.40
2022-11-04T02:07:08.516Z,5.10
2022-11-04T02:07:40.447Z,5.15
2022-11-04T02:08:12.535Z,3.42
2022-11-04T02:08:44.460Z,3.50
2022-11-04T02:09:17.523Z,3.17
2022-11-04T02:09:49.510Z,3.05
2022-11-04T02:10:23.706Z,4.40
2022-11-04T02:10:59.169Z,3.15
2022-11-04T02:11:49.230Z,3.10
2022-11-04T02:12:39.116Z,4.03
2022-11-04T02:13:11.007Z,5.78
2022-11-04T02:13:42.969Z,3.58
2022-11-04T02:14:14.491Z,4.68
2022-11-04T02:14:48.543Z,3.97
2022-11-04T02:15:45.799Z,4.07
2022-11-04T02:16:43.003Z,2.45
2022-11-04T02:17:38.835Z,2.63
2022-11-04T02:18:36.340Z,3.47
2022-11-04T02:19:31.827Z,2.53
2022-11-04T02:20:20.822Z,4.32
2022-11-04T02:21:30.609Z,3.28
2022-11-04T02:22:34.251Z,6.03
2022-11-04T02:23:37.952Z,4.45
2022-11-04T02:24:34.697Z,6.15
2022-11-04T02:25:18.010Z,2.92
2022-11-04T02:26:07.374Z,4.18
2022-11-04T02:27:03.358Z,2.50
2022-11-04T02:27:55.874Z,2.30
2022-11-04T02:28:39.295Z,2.92
2022-11-04T02:29:38.335Z,3.13
2022-11-04T02:30:17.371Z,3.40
2022-11-04T02:30:58.093Z,4.10
2022-11-04T02:31:55.905Z,4.18
2022-11-04T02:32:42.183Z,3.97
2022-11-04T02:33:22.760Z,4.70
2022-11-04T02:34:01.663Z,4.65
2022-11-04T02:34:54.788Z,4.95
2022-11-04T02:35:35.348Z,3.42
2022-11-04T02:36:18.118Z,7.55
2022-11-04T02:37:10.798Z,6.57
2022-11-04T02:38:37.522Z,5.80
2022-11-04T02:39:20.309Z,6.30
2022-11-04T02:40:02.933Z,6.00
2022-11-04T02:40:45.675Z,10.82
2022-11-04T02:41:56.111Z,7.30
2022-11-04T02:42:33.361Z,10.38
2022-11-04T02:43:10.907Z,7.05
2022-11-04T02:43:45.551Z,7.53
2022-11-04T02:44:21.780Z,9.98
2022-11-04T02:45:15.032Z,7.20
2022-11-04T02:45:52.351Z,8.73
2022-11-04T02:46:53.231Z,8.93
2022-11-04T02:47:27.762Z,8.48
2022-11-04T02:48:18.847Z,9.88
2022-11-04T02:49:15.802Z,9.55
2022-11-04T02:49:55.225Z,12.10
2022-11-04T02:50:37.605Z,11.45
2022-11-04T02:51:20.945Z,11.05
2022-11-04T02:52:08.714Z,11.38
2022-11-04T02:52:51.994Z,18.65
2022-11-04T02:53:27.893Z,15.20
2022-11-04T02:53:59.613Z,13.40
2022-11-04T02:54:36.210Z,12.60
2022-11-04T02:58:33.440Z,10.60
2022-11-04T02:59:09.861Z,11.95
2022-11-04T02:59:47.612Z,12.73
2022-11-04T03:00:22.189Z,15.15
2022-11-04T03:01:22.846Z,18.92
2022-11-04T03:01:55.602Z,15.18
2022-11-04T03:02:31.559Z,15.55
2022-11-04T03:03:11.393Z,13.93
2022-11-04T03:03:50.142Z,13.93
2022-11-04T03:04:26.672Z,16.17
2022-11-04T03:04:59.353Z,18.20
2022-11-04T03:05:34.766Z,28.02
2022-11-04T03:06:09.863Z,15.68
2022-11-04T03:06:45.843Z,15.35
2022-11-04T03:07:20.634Z,17.20
2022-11-04T03:07:54.412Z,15.50
2022-11-04T03:08:31.013Z,18.38
2022-11-04T03:09:03.888Z,16.33
2022-11-04T03:09:36.169Z,21.40
2022-11-04T03:10:17.888Z,15.82
2022-11-04T03:10:53.667Z,16.52
2022-11-04T03:11:26.119Z,15.48
2022-11-04T03:12:02.536Z,20.02
2022-11-04T03:12:38.967Z,18.30
2022-11-04T03:13:20.522Z,20.05
2022-11-04T03:14:02.938Z,16.70
2022-11-04T03:14:43.648Z,17.80
2022-11-04T03:15:21.134Z,19.33
2022-11-04T03:15:57.626Z,18.23
2022-11-04T03:16:41.333Z,16.08
2022-11-04T03:17:21.351Z,19.20
2022-11-04T03:18:13.612Z,17.40
2022-11-04T03:19:02.495Z,18.08
2022-11-04T03:19:59.235Z,17.83
2022-11-04T03:20:31.940Z,22.17
2022-11-04T03:21:06.391Z,19.80
2022-11-04T03:21:43.173Z,18.45
2022-11-04T03:22:19.370Z,18.85
2022-11-04T03:22:55.654Z,19.50
2022-11-04T03:23:27.348Z,19.48
2022-11-04T03:23:58.930Z,17.17
2022-11-04T03:24:31.488Z,19.63
2022-11-04T03:25:05.667Z,22.08
2022-11-04T03:25:40.924Z,21.25
2022-11-04T03:26:23.635Z,24.17
2022-11-04T03:27:03.210Z,19.83
2022-11-04T03:27:40.454Z,20.17
2022-11-04T03:28:24.408Z,23.20
2022-11-04T03:29:04.927Z,25.85
2022-11-04T03:29:41.739Z,23.45
2022-11-04T03:30:57.477Z,23.08
2022-11-04T03:31:53.709Z,22.00
2022-11-04T03:33:06.032Z,21.60
2022-11-04T03:33:51.921Z,24.10
2022-11-04T03:34:23.449Z,23.08
2022-11-04T03:34:55.163Z,26.45
2022-11-04T03:35:27.913Z,26.88
2022-11-04T03:35:59.540Z,25.98
2022-11-04T03:36:31.109Z,22.65
2022-11-04T03:37:02.677Z,27.88
2022-11-04T03:37:34.439Z,23.75
2022-11-04T03:38:05.987Z,22.65
2022-11-04T03:38:38.087Z,22.63
2022-11-04T03:39:09.810Z,23.17
2022-11-04T03:39:41.376Z,24.90
2022-11-04T03:40:13.336Z,22.98
2022-11-04T03:40:44.849Z,29.75
2022-11-04T03:41:24.873Z,18.88
2022-11-04T03:41:58.052Z,24.63
2022-11-04T03:42:32.239Z,21.60
2022-11-04T03:43:09.304Z,26.63
2022-11-04T03:43:41.883Z,22.40
2022-11-04T03:44:13.419Z,24.17
2022-11-04T03:44:44.979Z,25.63
2022-11-04T03:45:16.772Z,25.17
2022-11-04T03:45:49.119Z,21.88
2022-11-04T03:46:22.456Z,23.25
2022-11-04T03:46:54.147Z,21.38
2022-11-04T03:47:27.792Z,22.83
2022-11-04T03:48:00.254Z,26.70
2022-11-04T03:48:32.079Z,22.15
2022-11-04T03:49:04.486Z,22.77
2022-11-04T03:49:36.166Z,23.08
2022-11-04T03:50:31.188Z,25.55
2022-11-04T03:51:02.816Z,23.40
2022-11-04T03:51:34.349Z,25.20
2022-11-04T03:52:05.948Z,23.80
2022-11-04T03:52:37.614Z,27.10
2022-11-04T03:53:10.319Z,28.80
2022-11-04T03:53:42.592Z,24.73
2022-11-04T03:54:14.618Z,22.63
2022-11-04T03:54:46.808Z,26.45
2022-11-04T03:55:18.376Z,24.85
2022-11-04T03:56:13.476Z,29.58
2022-11-04T03:57:22.894Z,26.00
2022-11-04T03:58:06.109Z,27.10
2022-11-04T03:58:45.543Z,24.67
2022-11-04T03:59:29.880Z,26.13
2022-11-04T04:00:13.265Z,25.25
2022-11-04T04:00:50.265Z,25.27
2022-11-04T04:01:24.532Z,25.98
2022-11-04T04:02:15.161Z,25.83
2022-11-04T04:03:04.511Z,26.50
2022-11-04T04:03:42.614Z,23.35
2022-11-04T04:04:19.719Z,21.83
2022-11-04T04:05:00.768Z,25.23
2022-11-04T04:06:11.135Z,28.23
2022-11-04T04:06:43.702Z,23.83
2022-11-04T04:07:19.207Z,25.75
2022-11-04T04:07:56.818Z,23.00
2022-11-04T04:08:37.236Z,25.65
2022-11-04T04:09:20.302Z,24.40
2022-11-04T04:09:56.347Z,28.77
2022-11-04T04:10:39.596Z,27.77
2022-11-04T04:11:35.324Z,24.30
2022-11-04T04:12:18.191Z,23.45
2022-11-04T04:12:49.902Z,24.60
2022-11-04T04:13:34.907Z,27.58
2022-11-04T04:14:39.539Z,26.27
2022-11-04T04:15:18.245Z,24.05
2022-11-04T04:15:56.423Z,25.98
2022-11-04T04:16:32.839Z,25.45
2022-11-04T04:17:31.846Z,23.45
2022-11-04T04:18:06.451Z,27.02
2022-11-04T04:18:45.767Z,30.20
2022-11-04T04:19:20.769Z,28.95
2022-11-04T04:19:58.653Z,23.63
2022-11-04T04:20:32.049Z,26.90
2022-11-04T04:21:07.256Z,31.15
2022-11-04T04:21:48.574Z,26.48
2022-11-04T04:22:25.478Z,27.85
2022-11-04T04:23:02.023Z,26.98
2022-11-04T04:23:53.633Z,28.13
2022-11-04T04:24:46.445Z,26.58
2022-11-04T04:25:38.458Z,25.02
2022-11-04T04:26:29.539Z,26.10
2022-11-04T04:27:20.398Z,25.48
2022-11-04T04:27:53.619Z,27.25
2022-11-04T04:28:25.288Z,29.45
2022-11-04T04:28:57.644Z,28.77
2022-11-04T04:29:29.931Z,33.38
2022-11-04T04:30:05.982Z,31.67
2022-11-04T04:30:38.083Z,29.45
2022-11-04T04:31:11.607Z,29.17
2022-11-04T04:31:49.392Z,27.98
2022-11-04T04:32:23.009Z,25.02
2022-11-04T04:32:58.542Z,30.33
2022-11-04T04:33:30.293Z,26.85
2022-11-04T04:34:02.940Z,30.05
2022-11-04T04:34:34.715Z,31.52
2022-11-04T04:35:26.607Z,32.63
2022-11-04T04:35:58.976Z,24.90
2022-11-04T04:36:33.264Z,30.05
2022-11-04T04:37:11.743Z,30.23
2022-11-04T04:37:44.693Z,26.73
2022-11-04T04:38:45.093Z,29.48
2022-11-04T04:39:37.158Z,33.40
2022-11-04T04:40:30.482Z,29.48
2022-11-04T04:41:34.545Z,29.73
2022-11-04T04:42:24.935Z,28.27
2022-11-04T04:43:14.812Z,29.75
2022-11-04T04:44:04.820Z,29.42
2022-11-04T04:44:54.878Z,27.77
2022-11-04T04:45:35.223Z,31.50
2022-11-04T04:46:06.798Z,31.80
2022-11-04T04:46:38.955Z,28.52
2022-11-04T04:47:19.813Z,31.25
2022-11-04T04:47:51.731Z,27.00
2022-11-04T04:48:23.235Z,28.67
2022-11-04T04:48:54.806Z,28.77
2022-11-04T04:49:35.075Z,26.52
2022-11-04T04:50:07.575Z,31.63
2022-11-04T04:58:00.884Z,25.13
2022-11-04T04:58:32.370Z,28.80
2022-11-04T04:59:03.939Z,28.95
2022-11-04T04:59:35.474Z,26.73
2022-11-04T05:00:10.412Z,30.17
2022-11-04T05:00:41.940Z,28.17
2022-11-04T05:01:13.680Z,25.70
2022-11-04T05:01:45.467Z,27.23
2022-11-04T05:02:17.202Z,28.27
2022-11-04T05:02:49.344Z,28.17
2022-11-04T05:03:20.866Z,27.77
2022-11-04T05:03:52.417Z,27.60
2022-11-04T05:04:23.945Z,30.33
2022-11-04T05:04:56.382Z,25.75
2022-11-04T05:05:27.953Z,27.58
2022-11-04T05:06:00.099Z,27.58
2022-11-04T05:06:31.625Z,28.25
2022-11-04T05:07:03.376Z,22.80
2022-11-04T05:07:34.933Z,25.98
2022-11-04T05:08:08.359Z,25.55
2022-11-04T05:08:40.246Z,28.20
2022-11-04T05:09:11.888Z,25.98
2022-11-04T05:09:43.412Z,28.13
2022-11-04T05:10:16.084Z,37.17
2022-11-04T05:10:47.805Z,26.90
2022-11-04T05:11:24.384Z,31.35
2022-11-04T05:16:13.278Z,24.55
2022-11-04T05:16:44.780Z,30.45
2022-11-04T05:17:16.519Z,28.58
2022-11-04T05:17:48.142Z,28.42
2022-11-04T05:18:20.020Z,24.73
2022-11-04T05:18:52.510Z,29.10
2022-11-04T05:19:24.149Z,26.88
2022-11-04T05:19:55.662Z,33.63
2022-11-04T05:20:29.060Z,31.02
2022-11-04T05:21:13.105Z,30.60
2022-11-04T05:21:44.679Z,29.80
2022-11-04T05:25:35.954Z,25.77
2022-11-04T05:26:07.501Z,28.63
2022-11-04T05:26:39.020Z,27.65
2022-11-04T05:27:10.524Z,30.25
2022-11-04T05:27:42.012Z,34.25
2022-11-04T05:28:13.992Z,28.83
2022-11-04T05:28:45.539Z,24.33
2022-11-04T05:29:17.425Z,29.52
2022-11-04T05:29:48.954Z,30.85
2022-11-04T05:30:20.543Z,26.85
2022-11-04T05:30:52.151Z,31.58
2022-11-04T05:31:23.954Z,32.58
2022-11-04T05:31:59.299Z,31.10
2022-11-04T05:32:33.863Z,24.92
2022-11-04T05:33:30.499Z,30.48
2022-11-04T05:34:02.084Z,27.63
2022-11-04T05:35:02.102Z,27.20
2022-11-04T05:35:34.641Z,27.55
2022-11-04T05:36:07.135Z,26.00
2022-11-04T05:36:38.787Z,24.88
2022-11-04T05:37:10.336Z,25.17
2022-11-04T05:37:42.088Z,28.13
2022-11-04T05:38:13.708Z,23.00
2022-11-04T05:38:50.554Z,32.45
2022-11-04T05:39:22.284Z,27.33
2022-11-04T05:39:53.822Z,26.65
2022-11-04T05:40:25.672Z,28.98
2022-11-04T05:40:58.241Z,29.25
2022-11-04T05:41:29.942Z,31.58
2022-11-04T05:42:01.590Z,29.90
2022-11-04T05:42:33.187Z,32.67
2022-11-04T05:43:04.811Z,28.38
2022-11-04T05:43:36.637Z,29.08
2022-11-04T05:44:09.661Z,34.50
2022-11-04T05:44:41.209Z,30.08
2022-11-04T05:45:12.822Z,32.05
2022-11-04T05:45:44.342Z,29.55
2022-11-04T05:46:15.861Z,33.42
2022-11-04T05:46:47.458Z,36.70
2022-11-04T05:47:18.950Z,32.55
2022-11-04T05:47:57.599Z,31.63
2022-11-04T05:48:29.118Z,33.45
2022-11-04T05:49:00.817Z,32.97
2022-11-04T05:49:33.525Z,30.35
2022-11-04T05:50:05.653Z,30.55
2022-11-04T05:50:38.367Z,34.83
2022-11-04T05:51:14.196Z,29.88
2022-11-04T05:51:45.846Z,31.58
2022-11-04T05:52:18.383Z,37.35
2022-11-04T05:52:49.951Z,28.35
2022-11-04T05:53:21.742Z,27.52
2022-11-04T05:53:53.565Z,34.72
2022-11-04T05:54:25.150Z,31.52
2022-11-04T05:54:57.332Z,31.52
2022-11-04T05:55:29.030Z,30.15
2022-11-04T05:56:00.556Z,28.73
2022-11-04T05:56:32.150Z,26.20
2022-11-04T05:57:03.687Z,30.67
2022-11-04T05:57:35.757Z,26.55
2022-11-04T05:58:07.713Z,23.23
2022-11-04T05:58:39.628Z,27.85
2022-11-04T05:59:11.284Z,25.88
2022-11-04T05:59:42.871Z,23.40
2022-11-04T06:00:15.006Z,27.10
2022-11-04T06:00:46.514Z,26.75
2022-11-04T06:01:25.465Z,24.23
2022-11-04T06:01:57.157Z,26.05
2022-11-04T06:02:29.113Z,24.38
2022-11-04T06:03:00.869Z,22.13
2022-11-04T06:03:32.438Z,18.83
2022-11-04T06:04:05.313Z,18.80
2022-11-04T06:04:36.882Z,20.17
2022-11-04T06:05:08.751Z,19.73
2022-11-04T06:05:40.253Z,24.35
2022-11-04T06:06:11.790Z,20.75
2022-11-04T06:06:43.870Z,20.35
2022-11-04T06:07:15.501Z,17.98
2022-11-04T06:07:47.011Z,21.15
2022-11-04T06:08:18.789Z,20.92
2022-11-04T06:08:51.102Z,18.75
2022-11-04T06:09:38.847Z,19.13
2022-11-04T06:10:10.742Z,16.83
2022-11-04T06:10:43.471Z,17.42
2022-11-04T06:11:15.035Z,14.98
2022-11-04T06:11:46.805Z,18.25
2022-11-04T06:12:18.423Z,21.63
2022-11-04T06:12:50.024Z,19.45
2022-11-04T06:13:21.759Z,15.98
2022-11-04T06:13:56.785Z,18.70
2022-11-04T06:14:28.309Z,19.90
2022-11-04T06:14:59.892Z,17.77
2022-11-04T06:15:31.440Z,25.40
2022-11-04T06:16:02.992Z,17.83
2022-11-04T06:16:34.639Z,18.80
2022-11-04T06:17:06.416Z,21.02
2022-11-04T06:17:38.199Z,18.58
2022-11-04T06:18:09.943Z,19.08
2022-11-04T06:18:41.885Z,21.23
2022-11-04T06:19:16.052Z,19.40
2022-11-04T06:19:48.213Z,18.75
2022-11-04T06:20:19.884Z,17.48
2022-11-04T06:21:26.370Z,15.65
2022-11-04T06:21:58.375Z,16.42
2022-11-04T06:22:29.944Z,19.67
2022-11-04T06:23:01.467Z,19.63
2022-11-04T06:23:33.149Z,16.73
2022-11-04T06:24:04.832Z,15.57
2022-11-04T06:24:36.595Z,14.63
2022-11-04T06:25:08.626Z,16.13
2022-11-04T06:25:40.349Z,15.50
2022-11-04T06:26:13.351Z,15.25
2022-11-04T06:26:45.867Z,17.05
2022-11-04T06:27:17.836Z,19.50
2022-11-04T06:27:49.588Z,14.73
2022-11-04T06:28:21.117Z,17.38
2022-11-04T06:28:52.889Z,17.23
2022-11-04T06:29:24.476Z,15.20
2022-11-04T06:29:56.024Z,17.63
2022-11-04T06:30:27.657Z,17.83
2022-11-04T06:31:00.957Z,20.88
2022-11-04T06:31:32.582Z,17.00
2022-11-04T06:32:04.349Z,18.02
2022-11-04T06:32:35.889Z,16.33
2022-11-04T06:33:07.369Z,18.25
2022-11-04T06:33:38.957Z,18.08
2022-11-04T06:34:10.831Z,16.17
2022-11-04T06:34:42.432Z,15.60
2022-11-04T06:35:14.074Z,15.45
2022-11-04T06:35:45.618Z,15.40
2022-11-04T06:36:17.376Z,17.00
2022-11-04T06:36:49.786Z,17.88
2022-11-04T06:37:21.331Z,15.65
2022-11-04T06:37:55.298Z,15.32
2022-11-04T06:38:27.074Z,17.55
2022-11-04T06:39:04.061Z,16.83
2022-11-04T06:39:37.066Z,18.50
2022-11-04T06:40:09.102Z,17.35
2022-11-04T06:40:40.729Z,22.60
2022-11-04T06:41:15.819Z,16.42
2022-11-04T06:41:50.517Z,14.75
2022-11-04T06:42:25.868Z,20.42
2022-11-04T06:46:23.436Z,17.55
2022-11-04T06:46:54.992Z,12.82
2022-11-04T06:47:26.639Z,12.30
2022-11-04T06:47:58.270Z,12.43
2022-11-04T06:48:33.016Z,12.10
2022-11-04T06:49:06.106Z,21.73
2022-11-04T06:49:37.659Z,14.35
2022-11-04T06:50:09.347Z,18.45
2022-11-04T06:50:40.863Z,14.63
2022-11-04T06:51:12.675Z,11.57
2022-11-04T06:51:44.721Z,14.57
2022-11-04T06:52:16.460Z,15.95
2022-11-04T06:52:48.415Z,9.52
2022-11-04T06:53:19.935Z,13.63
2022-11-04T06:53:51.677Z,13.15
2022-11-04T06:54:23.249Z,15.68
2022-11-04T06:54:54.752Z,17.83
2022-11-04T06:55:26.306Z,13.50
2022-11-04T06:56:02.879Z,11.10
2022-11-04T06:56:34.861Z,13.80
2022-11-04T06:57:06.781Z,10.50
2022-11-04T06:57:38.272Z,15.93
2022-11-04T06:58:09.963Z,14.38
2022-11-04T06:58:41.629Z,10.02
2022-11-04T06:59:18.394Z,16.90
2022-11-04T06:59:49.890Z,10.98
2022-11-04T07:00:21.527Z,21.80
2022-11-04T07:00:53.674Z,10.43
2022-11-04T07:01:28.326Z,12.25
2022-11-04T07:02:00.144Z,15.05
2022-11-04T07:02:32.419Z,14.77
2022-11-04T07:03:04.561Z,10.65
2022-11-04T07:03:41.118Z,15.68
2022-11-04T07:04:14.601Z,13.00
2022-11-04T07:08:30.970Z,11.35
2022-11-04T07:09:04.158Z,11.95
2022-11-04T07:09:35.801Z,10.32
2022-11-04T07:10:08.059Z,14.70
2022-11-04T07:10:39.665Z,11.73
2022-11-04T07:11:11.497Z,9.32
2022-11-04T07:11:44.173Z,18.80
2022-11-04T07:12:15.905Z,16.02
2022-11-04T07:12:47.537Z,10.82
2022-11-04T07:13:19.053Z,12.07
2022-11-04T07:13:50.814Z,8.52
2022-11-04T07:14:22.380Z,10.45
2022-11-04T07:14:56.438Z,10.75
2022-11-04T07:15:28.007Z,10.27
2022-11-04T07:16:00.001Z,10.65
2022-11-04T07:16:31.506Z,9.93
2022-11-04T07:17:03.552Z,14.18
2022-11-04T07:17:35.351Z,13.88
2022-11-04T07:18:07.559Z,8.55
2022-11-04T07:18:39.744Z,10.18
2022-11-04T07:19:11.519Z,15.25
2022-11-04T07:19:43.290Z,14.63
2022-11-04T07:20:15.022Z,7.93
2022-11-04T07:20:47.300Z,11.30
2022-11-04T07:21:19.540Z,11.23
2022-11-04T07:21:51.785Z,11.90
2022-11-04T07:22:23.899Z,11.18
2022-11-04T07:22:56.938Z,11.68
2022-11-04T07:23:30.786Z,12.45
2022-11-04T07:24:03.697Z,9.43
2022-11-04T07:24:35.753Z,10.20
2022-11-04T07:25:08.438Z,9.82
2022-11-04T07:25:40.887Z,10.63
2022-11-04T07:26:13.360Z,10.88
2022-11-04T07:26:45.127Z,10.65
2022-11-04T07:27:16.662Z,11.68
2022-11-04T07:27:48.166Z,9.65
2022-11-04T07:28:20.837Z,8.13
2022-11-04T07:28:55.614Z,9.18
2022-11-04T07:29:30.924Z,19.15
2022-11-04T07:30:03.762Z,8.70
2022-11-04T07:30:35.870Z,15.77
2022-11-04T07:31:11.472Z,12.27
2022-11-04T07:31:44.174Z,10.95
2022-11-04T07:32:17.847Z,7.15
2022-11-04T07:32:55.370Z,9.63
2022-11-04T07:33:28.665Z,12.18
2022-11-04T07:34:00.544Z,12.38
2022-11-04T07:34:32.281Z,10.75
2022-11-04T07:35:04.523Z,11.98
2022-11-04T07:35:36.629Z,14.30
2022-11-04T07:36:11.611Z,9.55
2022-11-04T07:36:43.251Z,8.20
2022-11-04T07:37:14.902Z,8.00
2022-11-04T07:37:46.491Z,7.65
2022-11-04T07:38:18.528Z,9.25
2022-11-04T07:38:50.624Z,14.00
2022-11-04T07:39:22.260Z,10.48
2022-11-04T07:39:53.924Z,10.43
2022-11-04T07:40:26.769Z,11.07
2022-11-04T07:40:59.180Z,10.63
2022-11-04T07:41:30.770Z,11.38
2022-11-04T07:42:02.505Z,14.55
2022-11-04T07:42:34.202Z,9.82
2022-11-04T07:43:11.270Z,14.05
2022-11-04T07:43:43.491Z,10.02
2022-11-04T07:44:15.460Z,9.05
2022-11-04T07:44:48.382Z,6.70
2022-11-04T07:45:20.950Z,9.25
2022-11-04T07:47:45.679Z,10.50
2022-11-04T07:48:17.205Z,8.20
2022-11-04T07:48:48.867Z,11.15
2022-11-04T07:49:20.591Z,9.70
2022-11-04T07:49:52.633Z,12.38
2022-11-04T07:50:24.360Z,9.50
2022-11-04T07:50:59.876Z,10.73
2022-11-04T07:51:34.316Z,11.60
2022-11-04T07:52:05.913Z,10.70
2022-11-04T07:52:37.529Z,10.70
2022-11-04T07:53:09.312Z,13.38
2022-11-04T07:53:41.215Z,8.50
2022-11-04T07:54:12.765Z,9.20
2022-11-04T07:54:44.360Z,13.82
2022-11-04T07:55:18.593Z,11.80
2022-11-04T07:55:51.202Z,13.35
2022-11-04T07:56:24.139Z,11.20
2022-11-04T07:56:55.741Z,9.15
2022-11-04T07:57:28.738Z,8.40
2022-11-04T07:58:00.478Z,7.55
2022-11-04T07:58:32.688Z,7.75
2022-11-04T07:59:07.021Z,11.93
2022-11-04T07:59:38.947Z,7.95
2022-11-04T08:00:11.523Z,9.02
2022-11-04T08:00:46.085Z,8.45
2022-11-04T08:01:20.707Z,8.00
2022-11-04T08:01:52.644Z,8.25
2022-11-04T08:02:27.752Z,9.10
2022-11-04T08:03:03.100Z,6.28
2022-11-04T08:03:35.638Z,13.05
2022-11-04T08:04:08.047Z,7.95
2022-11-04T08:04:39.932Z,7.80
2022-11-04T08:05:12.069Z,10.05
2022-11-04T08:05:43.844Z,8.60
2022-11-04T08:06:17.245Z,8.13
2022-11-04T08:06:49.064Z,6.57
2022-11-04T08:07:20.625Z,9.38
2022-11-04T08:07:52.188Z,10.25
2022-11-04T08:08:24.146Z,9.02
2022-11-04T08:08:58.933Z,6.13
2022-11-04T08:09:30.589Z,5.93
2022-11-04T08:10:02.338Z,10.68
2022-11-04T08:10:34.305Z,8.98
2022-11-04T08:11:17.615Z,6.07
2022-11-04T08:11:49.938Z,11.23
2022-11-04T08:12:23.999Z,10.15
2022-11-04T08:12:55.614Z,6.15
2022-11-04T08:13:29.087Z,6.88
2022-11-04T08:14:03.681Z,10.20
2022-11-04T08:14:35.271Z,9.20
2022-11-04T08:15:07.561Z,5.85
2022-11-04T08:15:39.101Z,7.07
2022-11-04T08:16:13.795Z,8.90
2022-11-04T08:16:45.382Z,6.32
2022-11-04T08:17:17.409Z,5.35
2022-11-04T08:17:48.999Z,11.68
2022-11-04T08:18:20.695Z,7.05